sensor_id;sensor_type;location;lat;lon;timestamp;temperature;humidity
7461;DHT22;6757;52.258;12.840;2023-12-29T00:00:55;7.80;99.90
7461;DHT22;6757;52.258;12.840;2023-12-29T00:03:23;7.80;99.90
7461;DHT22;6757;52.258;12.840;2023-12-29T00:05:52;7.80;99.90
7461;DHT22;6757;52.258;12.840;2023-12-29T00:08:19;7.80;99.90
7461;DHT22;6757;52.258;12.840;2023-12-29T00:10:45;7.80;99.90
7461;DHT22;6757;52.258;12.840;2023-12-29T00:13:13;7.90;99.90
7461;DHT22;6757;52.258;12.840;2023-12-29T00:15:40;7.80;99.90
7461;DHT22;6757;52.258;12.840;2023-12-29T00:18:08;7.80;99.90
7461;DHT22;6757;52.258;12.840;2023-12-29T00:20:35;7.70;99.90
7461;DHT22;6757;52.258;12.840;2023-12-29T00:23:04;7.90;99.90
7461;DHT22;6757;52.258;12.840;2023-12-29T00:25:31;7.80;99.90
7461;DHT22;6757;52.258;12.840;2023-12-29T00:27:59;7.80;99.90
7461;DHT22;6757;52.258;12.840;2023-12-29T00:30:26;7.80;99.90
7461;DHT22;6757;52.258;12.840;2023-12-29T00:32:54;7.80;99.90
7461;DHT22;6757;52.258;12.840;2023-12-29T00:35:22;7.80;99.90
7461;DHT22;6757;52.258;12.840;2023-12-29T00:37:50;7.80;99.90
7461;DHT22;6757;52.258;12.840;2023-12-29T00:40:19;7.90;99.90
7461;DHT22;6757;52.258;12.840;2023-12-29T00:42:46;7.90;99.90
7461;DHT22;6757;52.258;12.840;2023-12-29T00:45:14;7.90;99.90
7461;DHT22;6757;52.258;12.840;2023-12-29T00:47:41;7.90;99.90
7461;DHT22;6757;52.258;12.840;2023-12-29T00:50:09;8.00;99.90
7461;DHT22;6757;52.258;12.840;2023-12-29T00:52:36;7.90;99.90
7461;DHT22;6757;52.258;12.840;2023-12-29T00:55:04;7.90;99.90
7461;DHT22;6757;52.258;12.840;2023-12-29T00:57:33;7.90;99.90
7461;DHT22;6757;52.258;12.840;2023-12-29T01:00:02;8.00;99.90
7461;DHT22;6757;52.258;12.840;2023-12-29T01:02:30;8.00;99.90
7461;DHT22;6757;52.258;12.840;2023-12-29T01:04:57;8.00;99.90
7461;DHT22;6757;52.258;12.840;2023-12-29T01:07:26;8.00;99.90
7461;DHT22;6757;52.258;12.840;2023-12-29T01:09:54;8.00;99.90
7461;DHT22;6757;52.258;12.840;2023-12-29T01:12:21;8.00;99.90
7461;DHT22;6757;52.258;12.840;2023-12-29T01:14:52;8.00;99.90
7461;DHT22;6757;52.258;12.840;2023-12-29T01:17:18;8.00;99.90
7461;DHT22;6757;52.258;12.840;2023-12-29T01:19:47;8.10;99.90
7461;DHT22;6757;52.258;12.840;2023-12-29T01:22:14;8.00;99.90
7461;DHT22;6757;52.258;12.840;2023-12-29T01:24:40;8.00;99.90
7461;DHT22;6757;52.258;12.840;2023-12-29T01:27:08;8.00;99.90
7461;DHT22;6757;52.258;12.840;2023-12-29T01:29:35;8.00;99.90
7461;DHT22;6757;52.258;12.840;2023-12-29T01:32:05;8.10;99.90
7461;DHT22;6757;52.258;12.840;2023-12-29T01:34:33;8.10;99.90
7461;DHT22;6757;52.258;12.840;2023-12-29T01:37:03;8.00;99.90
7461;DHT22;6757;52.258;12.840;2023-12-29T01:39:30;8.10;99.90
7461;DHT22;6757;52.258;12.840;2023-12-29T01:41:58;8.10;99.90
7461;DHT22;6757;52.258;12.840;2023-12-29T01:44:24;8.10;99.90
7461;DHT22;6757;52.258;12.840;2023-12-29T01:46:51;8.10;99.90
7461;DHT22;6757;52.258;12.840;2023-12-29T01:49:21;8.10;99.90
7461;DHT22;6757;52.258;12.840;2023-12-29T01:51:50;8.10;99.90
7461;DHT22;6757;52.258;12.840;2023-12-29T01:54:19;8.10;99.90
7461;DHT22;6757;52.258;12.840;2023-12-29T01:56:48;8.10;99.90
7461;DHT22;6757;52.258;12.840;2023-12-29T01:59:19;8.10;99.90
7461;DHT22;6757;52.258;12.840;2023-12-29T02:01:46;8.10;99.90
7461;DHT22;6757;52.258;12.840;2023-12-29T02:04:15;8.10;99.90
7461;DHT22;6757;52.258;12.840;2023-12-29T02:06:45;8.10;99.90
7461;DHT22;6757;52.258;12.840;2023-12-29T02:09:12;8.10;99.90
7461;DHT22;6757;52.258;12.840;2023-12-29T02:11:41;8.10;99.90
7461;DHT22;6757;52.258;12.840;2023-12-29T02:14:11;8.10;99.90
7461;DHT22;6757;52.258;12.840;2023-12-29T02:16:45;8.10;99.90
7461;DHT22;6757;52.258;12.840;2023-12-29T02:19:25;8.10;99.90
7461;DHT22;6757;52.258;12.840;2023-12-29T02:22:02;8.10;99.90
7461;DHT22;6757;52.258;12.840;2023-12-29T02:24:29;7.90;99.90
7461;DHT22;6757;52.258;12.840;2023-12-29T02:27:02;8.10;99.90
7461;DHT22;6757;52.258;12.840;2023-12-29T02:29:35;8.10;99.90
7461;DHT22;6757;52.258;12.840;2023-12-29T02:32:07;8.10;99.90
7461;DHT22;6757;52.258;12.840;2023-12-29T02:34:40;8.10;99.90
7461;DHT22;6757;52.258;12.840;2023-12-29T02:37:08;8.10;99.90
7461;DHT22;6757;52.258;12.840;2023-12-29T02:39:36;8.10;99.90
7461;DHT22;6757;52.258;12.840;2023-12-29T02:42:06;7.90;99.90
7461;DHT22;6757;52.258;12.840;2023-12-29T02:44:32;8.10;99.90
7461;DHT22;6757;52.258;12.840;2023-12-29T02:47:00;8.10;99.90
7461;DHT22;6757;52.258;12.840;2023-12-29T02:49:29;8.10;99.90
7461;DHT22;6757;52.258;12.840;2023-12-29T02:51:56;8.00;99.90
7461;DHT22;6757;52.258;12.840;2023-12-29T02:54:23;8.00;99.90
7461;DHT22;6757;52.258;12.840;2023-12-29T02:56:50;8.00;99.90
7461;DHT22;6757;52.258;12.840;2023-12-29T02:59:19;8.10;99.90
7461;DHT22;6757;52.258;12.840;2023-12-29T03:01:46;8.20;99.90
7461;DHT22;6757;52.258;12.840;2023-12-29T03:04:14;8.00;99.90
7461;DHT22;6757;52.258;12.840;2023-12-29T03:06:41;8.00;99.90
7461;DHT22;6757;52.258;12.840;2023-12-29T03:09:09;8.00;99.90
7461;DHT22;6757;52.258;12.840;2023-12-29T03:11:38;8.00;99.90
7461;DHT22;6757;52.258;12.840;2023-12-29T03:14:05;8.00;99.90
7461;DHT22;6757;52.258;12.840;2023-12-29T03:16:33;8.00;99.90
7461;DHT22;6757;52.258;12.840;2023-12-29T03:19:01;8.00;99.90
7461;DHT22;6757;52.258;12.840;2023-12-29T03:21:27;8.00;99.90
7461;DHT22;6757;52.258;12.840;2023-12-29T03:23:55;7.70;99.90
7461;DHT22;6757;52.258;12.840;2023-12-29T03:26:21;8.00;99.90
7461;DHT22;6757;52.258;12.840;2023-12-29T03:28:48;8.00;99.90
7461;DHT22;6757;52.258;12.840;2023-12-29T03:31:14;8.00;99.90
7461;DHT22;6757;52.258;12.840;2023-12-29T03:33:44;8.00;99.90
7461;DHT22;6757;52.258;12.840;2023-12-29T03:36:11;8.00;99.90
7461;DHT22;6757;52.258;12.840;2023-12-29T03:38:38;8.00;99.90
7461;DHT22;6757;52.258;12.840;2023-12-29T03:41:05;8.00;99.90
7461;DHT22;6757;52.258;12.840;2023-12-29T03:43:32;8.00;99.90
7461;DHT22;6757;52.258;12.840;2023-12-29T03:45:59;8.10;99.90
7461;DHT22;6757;52.258;12.840;2023-12-29T03:48:25;8.10;99.90
7461;DHT22;6757;52.258;12.840;2023-12-29T03:50:54;8.10;99.90
7461;DHT22;6757;52.258;12.840;2023-12-29T03:53:22;8.10;99.90
7461;DHT22;6757;52.258;12.840;2023-12-29T03:55:48;7.80;99.90
7461;DHT22;6757;52.258;12.840;2023-12-29T03:58:15;8.20;99.90
7461;DHT22;6757;52.258;12.840;2023-12-29T04:00:43;8.20;99.90
7461;DHT22;6757;52.258;12.840;2023-12-29T04:03:11;8.30;99.90
7461;DHT22;6757;52.258;12.840;2023-12-29T04:05:38;8.30;99.90
7461;DHT22;6757;52.258;12.840;2023-12-29T04:08:07;8.30;99.90
7461;DHT22;6757;52.258;12.840;2023-12-29T04:10:35;8.40;99.90
7461;DHT22;6757;52.258;12.840;2023-12-29T04:13:03;8.40;99.90
7461;DHT22;6757;52.258;12.840;2023-12-29T04:15:30;8.40;99.90
7461;DHT22;6757;52.258;12.840;2023-12-29T04:17:59;8.50;99.90
7461;DHT22;6757;52.258;12.840;2023-12-29T04:20:27;8.50;99.90
7461;DHT22;6757;52.258;12.840;2023-12-29T04:22:54;8.50;99.90
7461;DHT22;6757;52.258;12.840;2023-12-29T04:25:23;8.50;99.90
7461;DHT22;6757;52.258;12.840;2023-12-29T04:27:51;8.70;99.90
7461;DHT22;6757;52.258;12.840;2023-12-29T04:30:19;8.50;99.90
7461;DHT22;6757;52.258;12.840;2023-12-29T04:32:48;8.50;99.90
7461;DHT22;6757;52.258;12.840;2023-12-29T04:35:15;8.50;99.90
7461;DHT22;6757;52.258;12.840;2023-12-29T04:37:43;8.50;99.90
7461;DHT22;6757;52.258;12.840;2023-12-29T04:40:13;8.30;99.90
7461;DHT22;6757;52.258;12.840;2023-12-29T04:42:41;8.50;99.90
7461;DHT22;6757;52.258;12.840;2023-12-29T04:45:09;8.50;99.90
7461;DHT22;6757;52.258;12.840;2023-12-29T04:47:36;8.50;99.90
7461;DHT22;6757;52.258;12.840;2023-12-29T04:50:04;8.50;99.90
7461;DHT22;6757;52.258;12.840;2023-12-29T04:52:34;8.50;99.90
7461;DHT22;6757;52.258;12.840;2023-12-29T04:55:01;8.50;99.90
7461;DHT22;6757;52.258;12.840;2023-12-29T04:57:28;8.50;99.90
7461;DHT22;6757;52.258;12.840;2023-12-29T04:59:57;8.50;99.90
7461;DHT22;6757;52.258;12.840;2023-12-29T05:02:24;8.50;99.90
7461;DHT22;6757;52.258;12.840;2023-12-29T05:04:52;8.50;99.90
7461;DHT22;6757;52.258;12.840;2023-12-29T05:07:19;8.50;99.90
7461;DHT22;6757;52.258;12.840;2023-12-29T05:09:46;8.50;99.90
7461;DHT22;6757;52.258;12.840;2023-12-29T05:12:14;8.50;99.90
7461;DHT22;6757;52.258;12.840;2023-12-29T05:14:41;8.60;99.90
7461;DHT22;6757;52.258;12.840;2023-12-29T05:17:10;8.60;99.90
7461;DHT22;6757;52.258;12.840;2023-12-29T05:19:36;8.60;99.90
7461;DHT22;6757;52.258;12.840;2023-12-29T05:22:03;8.70;99.90
7461;DHT22;6757;52.258;12.840;2023-12-29T05:24:30;8.70;99.90
7461;DHT22;6757;52.258;12.840;2023-12-29T05:26:57;8.70;99.90
7461;DHT22;6757;52.258;12.840;2023-12-29T05:29:24;8.70;99.90
7461;DHT22;6757;52.258;12.840;2023-12-29T05:31:52;8.80;99.90
7461;DHT22;6757;52.258;12.840;2023-12-29T05:34:22;8.80;99.90
7461;DHT22;6757;52.258;12.840;2023-12-29T05:36:49;8.80;99.90
7461;DHT22;6757;52.258;12.840;2023-12-29T05:39:16;8.80;99.90
7461;DHT22;6757;52.258;12.840;2023-12-29T05:41:43;8.80;99.90
7461;DHT22;6757;52.258;12.840;2023-12-29T05:44:10;8.80;99.90
7461;DHT22;6757;52.258;12.840;2023-12-29T05:46:38;8.80;99.90
7461;DHT22;6757;52.258;12.840;2023-12-29T05:49:05;8.80;99.90
7461;DHT22;6757;52.258;12.840;2023-12-29T05:51:33;8.80;99.90
7461;DHT22;6757;52.258;12.840;2023-12-29T05:54:00;8.80;99.90
7461;DHT22;6757;52.258;12.840;2023-12-29T05:56:28;8.80;99.90
7461;DHT22;6757;52.258;12.840;2023-12-29T05:58:56;8.80;99.90
7461;DHT22;6757;52.258;12.840;2023-12-29T06:01:24;8.80;99.90
7461;DHT22;6757;52.258;12.840;2023-12-29T06:03:52;8.80;99.90
7461;DHT22;6757;52.258;12.840;2023-12-29T06:06:20;8.70;99.90
7461;DHT22;6757;52.258;12.840;2023-12-29T06:08:50;8.70;99.90
7461;DHT22;6757;52.258;12.840;2023-12-29T06:11:17;8.70;99.90
7461;DHT22;6757;52.258;12.840;2023-12-29T06:13:45;8.70;99.90
7461;DHT22;6757;52.258;12.840;2023-12-29T06:16:18;8.70;99.90
7461;DHT22;6757;52.258;12.840;2023-12-29T06:18:47;8.80;99.90
7461;DHT22;6757;52.258;12.840;2023-12-29T06:21:15;8.80;99.90
7461;DHT22;6757;52.258;12.840;2023-12-29T06:23:43;8.80;99.90
7461;DHT22;6757;52.258;12.840;2023-12-29T06:26:15;8.80;99.90
7461;DHT22;6757;52.258;12.840;2023-12-29T06:28:43;8.80;99.90
7461;DHT22;6757;52.258;12.840;2023-12-29T06:31:11;8.90;99.90
7461;DHT22;6757;52.258;12.840;2023-12-29T06:33:40;8.80;99.90
7461;DHT22;6757;52.258;12.840;2023-12-29T06:36:08;8.80;99.90
7461;DHT22;6757;52.258;12.840;2023-12-29T06:38:38;8.80;99.90
7461;DHT22;6757;52.258;12.840;2023-12-29T06:41:07;8.80;99.90
7461;DHT22;6757;52.258;12.840;2023-12-29T06:43:35;8.80;99.90
7461;DHT22;6757;52.258;12.840;2023-12-29T06:46:02;8.80;99.90
7461;DHT22;6757;52.258;12.840;2023-12-29T06:48:30;8.80;99.90
7461;DHT22;6757;52.258;12.840;2023-12-29T06:50:56;8.80;99.90
7461;DHT22;6757;52.258;12.840;2023-12-29T06:53:22;8.80;99.90
7461;DHT22;6757;52.258;12.840;2023-12-29T06:55:50;8.80;99.90
7461;DHT22;6757;52.258;12.840;2023-12-29T06:58:19;8.70;99.90
7461;DHT22;6757;52.258;12.840;2023-12-29T07:00:48;8.90;99.90
7461;DHT22;6757;52.258;12.840;2023-12-29T07:03:14;8.90;99.90
7461;DHT22;6757;52.258;12.840;2023-12-29T07:05:42;8.90;99.90
7461;DHT22;6757;52.258;12.840;2023-12-29T07:08:12;8.90;99.90
7461;DHT22;6757;52.258;12.840;2023-12-29T07:10:40;9.00;99.90
7461;DHT22;6757;52.258;12.840;2023-12-29T07:13:08;9.00;99.90
7461;DHT22;6757;52.258;12.840;2023-12-29T07:15:35;9.00;99.90
7461;DHT22;6757;52.258;12.840;2023-12-29T07:18:04;8.90;99.90
7461;DHT22;6757;52.258;12.840;2023-12-29T07:20:32;9.00;99.90
7461;DHT22;6757;52.258;12.840;2023-12-29T07:22:59;9.00;99.90
7461;DHT22;6757;52.258;12.840;2023-12-29T07:25:28;9.00;99.90
7461;DHT22;6757;52.258;12.840;2023-12-29T07:27:55;9.00;99.90
7461;DHT22;6757;52.258;12.840;2023-12-29T07:30:24;9.00;99.90
7461;DHT22;6757;52.258;12.840;2023-12-29T07:32:51;9.00;99.90
7461;DHT22;6757;52.258;12.840;2023-12-29T07:35:20;9.00;99.90
7461;DHT22;6757;52.258;12.840;2023-12-29T07:37:48;9.00;99.90
7461;DHT22;6757;52.258;12.840;2023-12-29T07:40:17;9.00;99.90
7461;DHT22;6757;52.258;12.840;2023-12-29T07:42:45;9.30;99.90
7461;DHT22;6757;52.258;12.840;2023-12-29T07:45:15;9.00;99.90
7461;DHT22;6757;52.258;12.840;2023-12-29T07:47:43;9.00;99.90
7461;DHT22;6757;52.258;12.840;2023-12-29T07:50:10;9.00;99.90
7461;DHT22;6757;52.258;12.840;2023-12-29T07:52:38;9.00;99.90
7461;DHT22;6757;52.258;12.840;2023-12-29T07:55:07;9.00;99.90
7461;DHT22;6757;52.258;12.840;2023-12-29T07:57:34;9.10;99.90
7461;DHT22;6757;52.258;12.840;2023-12-29T08:00:01;9.10;99.90
7461;DHT22;6757;52.258;12.840;2023-12-29T08:02:31;9.00;99.90
7461;DHT22;6757;52.258;12.840;2023-12-29T08:04:59;9.00;99.90
7461;DHT22;6757;52.258;12.840;2023-12-29T08:07:26;9.00;99.90
7461;DHT22;6757;52.258;12.840;2023-12-29T08:09:56;9.00;99.90
7461;DHT22;6757;52.258;12.840;2023-12-29T08:12:24;9.30;99.90
7461;DHT22;6757;52.258;12.840;2023-12-29T08:14:50;9.00;99.90
7461;DHT22;6757;52.258;12.840;2023-12-29T08:17:17;9.10;99.90
7461;DHT22;6757;52.258;12.840;2023-12-29T08:19:46;9.10;99.90
7461;DHT22;6757;52.258;12.840;2023-12-29T08:22:13;9.00;99.90
7461;DHT22;6757;52.258;12.840;2023-12-29T08:24:40;9.00;99.90
7461;DHT22;6757;52.258;12.840;2023-12-29T08:27:11;9.00;99.90
7461;DHT22;6757;52.258;12.840;2023-12-29T08:29:39;9.00;99.90
7461;DHT22;6757;52.258;12.840;2023-12-29T08:32:07;9.00;99.90
7461;DHT22;6757;52.258;12.840;2023-12-29T08:34:35;9.00;99.90
7461;DHT22;6757;52.258;12.840;2023-12-29T08:37:05;9.00;99.90
7461;DHT22;6757;52.258;12.840;2023-12-29T08:39:32;9.00;99.90
7461;DHT22;6757;52.258;12.840;2023-12-29T08:41:59;9.10;99.90
7461;DHT22;6757;52.258;12.840;2023-12-29T08:44:28;9.10;99.90
7461;DHT22;6757;52.258;12.840;2023-12-29T08:46:55;9.10;99.90
7461;DHT22;6757;52.258;12.840;2023-12-29T08:49:22;9.20;99.90
7461;DHT22;6757;52.258;12.840;2023-12-29T08:51:49;9.20;99.90
7461;DHT22;6757;52.258;12.840;2023-12-29T08:54:17;9.30;99.90
7461;DHT22;6757;52.258;12.840;2023-12-29T08:56:44;9.20;99.90
7461;DHT22;6757;52.258;12.840;2023-12-29T08:59:11;9.40;99.90
7461;DHT22;6757;52.258;12.840;2023-12-29T09:01:39;9.20;99.90
7461;DHT22;6757;52.258;12.840;2023-12-29T09:04:06;9.30;99.90
7461;DHT22;6757;52.258;12.840;2023-12-29T09:06:33;9.30;99.90
7461;DHT22;6757;52.258;12.840;2023-12-29T09:09:00;9.30;99.90
7461;DHT22;6757;52.258;12.840;2023-12-29T09:11:27;9.30;99.90
7461;DHT22;6757;52.258;12.840;2023-12-29T09:13:55;9.30;99.90
7461;DHT22;6757;52.258;12.840;2023-12-29T09:16:22;9.30;99.90
7461;DHT22;6757;52.258;12.840;2023-12-29T09:18:51;9.40;99.90
7461;DHT22;6757;52.258;12.840;2023-12-29T09:21:19;9.40;99.90
7461;DHT22;6757;52.258;12.840;2023-12-29T09:23:46;9.20;99.90
7461;DHT22;6757;52.258;12.840;2023-12-29T09:26:13;9.40;99.90
7461;DHT22;6757;52.258;12.840;2023-12-29T09:28:42;9.40;99.90
7461;DHT22;6757;52.258;12.840;2023-12-29T09:31:09;9.40;99.90
7461;DHT22;6757;52.258;12.840;2023-12-29T09:33:36;9.30;99.90
7461;DHT22;6757;52.258;12.840;2023-12-29T09:36:06;9.60;99.90
7461;DHT22;6757;52.258;12.840;2023-12-29T09:38:33;9.60;99.90
7461;DHT22;6757;52.258;12.840;2023-12-29T09:41:08;9.70;99.90
7461;DHT22;6757;52.258;12.840;2023-12-29T09:43:37;9.60;99.90
7461;DHT22;6757;52.258;12.840;2023-12-29T09:46:06;9.70;99.90
7461;DHT22;6757;52.258;12.840;2023-12-29T09:48:36;9.70;99.90
7461;DHT22;6757;52.258;12.840;2023-12-29T09:51:07;9.70;99.90
7461;DHT22;6757;52.258;12.840;2023-12-29T09:53:36;9.80;99.90
7461;DHT22;6757;52.258;12.840;2023-12-29T09:56:07;9.80;99.90
7461;DHT22;6757;52.258;12.840;2023-12-29T09:58:35;9.90;99.90
7461;DHT22;6757;52.258;12.840;2023-12-29T10:01:04;9.90;99.90
7461;DHT22;6757;52.258;12.840;2023-12-29T10:03:32;10.00;99.90
7461;DHT22;6757;52.258;12.840;2023-12-29T10:06:03;10.00;99.90
7461;DHT22;6757;52.258;12.840;2023-12-29T10:08:36;10.10;99.90
7461;DHT22;6757;52.258;12.840;2023-12-29T10:11:05;10.10;99.90
7461;DHT22;6757;52.258;12.840;2023-12-29T10:13:35;10.10;99.90
7461;DHT22;6757;52.258;12.840;2023-12-29T10:16:07;10.10;99.90
7461;DHT22;6757;52.258;12.840;2023-12-29T10:18:40;10.20;99.90
7461;DHT22;6757;52.258;12.840;2023-12-29T10:21:22;10.20;99.90
7461;DHT22;6757;52.258;12.840;2023-12-29T10:23:58;10.30;99.90
7461;DHT22;6757;52.258;12.840;2023-12-29T10:26:30;10.30;99.90
7461;DHT22;6757;52.258;12.840;2023-12-29T10:28:57;10.40;99.90
7461;DHT22;6757;52.258;12.840;2023-12-29T10:31:25;10.40;99.90
7461;DHT22;6757;52.258;12.840;2023-12-29T10:33:52;10.50;99.90
7461;DHT22;6757;52.258;12.840;2023-12-29T10:36:21;10.60;99.90
7461;DHT22;6757;52.258;12.840;2023-12-29T10:38:48;10.60;99.90
7461;DHT22;6757;52.258;12.840;2023-12-29T10:41:17;10.70;99.90
7461;DHT22;6757;52.258;12.840;2023-12-29T10:43:46;10.80;99.90
7461;DHT22;6757;52.258;12.840;2023-12-29T10:46:17;10.90;99.90
7461;DHT22;6757;52.258;12.840;2023-12-29T10:48:46;10.90;99.90
7461;DHT22;6757;52.258;12.840;2023-12-29T10:51:13;10.90;99.90
7461;DHT22;6757;52.258;12.840;2023-12-29T10:53:55;10.90;99.90
7461;DHT22;6757;52.258;12.840;2023-12-29T10:56:23;10.90;99.90
7461;DHT22;6757;52.258;12.840;2023-12-29T10:59:00;10.90;99.90
7461;DHT22;6757;52.258;12.840;2023-12-29T11:01:28;10.90;99.90
7461;DHT22;6757;52.258;12.840;2023-12-29T11:03:58;10.90;99.90
7461;DHT22;6757;52.258;12.840;2023-12-29T11:06:27;10.90;99.90
7461;DHT22;6757;52.258;12.840;2023-12-29T11:08:57;10.90;99.90
7461;DHT22;6757;52.258;12.840;2023-12-29T11:11:26;10.90;99.90
7461;DHT22;6757;52.258;12.840;2023-12-29T11:13:53;10.90;99.90
7461;DHT22;6757;52.258;12.840;2023-12-29T11:16:21;10.80;99.90
7461;DHT22;6757;52.258;12.840;2023-12-29T11:18:49;10.90;99.90
7461;DHT22;6757;52.258;12.840;2023-12-29T11:21:19;10.90;99.90
7461;DHT22;6757;52.258;12.840;2023-12-29T11:23:48;10.90;99.90
7461;DHT22;6757;52.258;12.840;2023-12-29T11:26:17;10.90;99.90
7461;DHT22;6757;52.258;12.840;2023-12-29T11:28:46;10.90;99.90
7461;DHT22;6757;52.258;12.840;2023-12-29T11:31:14;10.90;99.90
7461;DHT22;6757;52.258;12.840;2023-12-29T11:33:46;10.90;99.90
7461;DHT22;6757;52.258;12.840;2023-12-29T11:36:20;10.80;99.90
7461;DHT22;6757;52.258;12.840;2023-12-29T11:38:57;10.80;99.90
7461;DHT22;6757;52.258;12.840;2023-12-29T11:41:33;10.90;99.90
7461;DHT22;6757;52.258;12.840;2023-12-29T11:44:05;10.90;99.90
7461;DHT22;6757;52.258;12.840;2023-12-29T11:46:33;10.90;99.90
7461;DHT22;6757;52.258;12.840;2023-12-29T11:49:01;10.80;99.90
7461;DHT22;6757;52.258;12.840;2023-12-29T11:51:34;10.80;99.90
7461;DHT22;6757;52.258;12.840;2023-12-29T11:54:03;10.80;99.90
7461;DHT22;6757;52.258;12.840;2023-12-29T11:56:34;10.80;99.90
7461;DHT22;6757;52.258;12.840;2023-12-29T11:59:14;10.80;99.90
7461;DHT22;6757;52.258;12.840;2023-12-29T12:01:42;10.80;99.90
7461;DHT22;6757;52.258;12.840;2023-12-29T12:04:35;10.80;99.90
7461;DHT22;6757;52.258;12.840;2023-12-29T12:07:06;10.70;99.90
7461;DHT22;6757;52.258;12.840;2023-12-29T12:09:35;10.70;99.90
7461;DHT22;6757;52.258;12.840;2023-12-29T12:12:03;10.70;99.90
7461;DHT22;6757;52.258;12.840;2023-12-29T12:14:43;10.70;99.90
7461;DHT22;6757;52.258;12.840;2023-12-29T12:17:28;10.70;99.90
7461;DHT22;6757;52.258;12.840;2023-12-29T12:19:57;10.70;99.90
7461;DHT22;6757;52.258;12.840;2023-12-29T12:22:29;10.70;99.90
7461;DHT22;6757;52.258;12.840;2023-12-29T12:24:59;10.70;99.90
7461;DHT22;6757;52.258;12.840;2023-12-29T12:27:30;10.60;99.90
7461;DHT22;6757;52.258;12.840;2023-12-29T12:29:58;10.60;99.90
7461;DHT22;6757;52.258;12.840;2023-12-29T12:32:26;10.60;99.90
7461;DHT22;6757;52.258;12.840;2023-12-29T12:34:55;10.60;99.90
7461;DHT22;6757;52.258;12.840;2023-12-29T12:37:24;10.60;99.90
7461;DHT22;6757;52.258;12.840;2023-12-29T12:39:52;10.50;99.90
7461;DHT22;6757;52.258;12.840;2023-12-29T12:42:19;10.50;99.90
7461;DHT22;6757;52.258;12.840;2023-12-29T12:44:54;10.50;99.90
7461;DHT22;6757;52.258;12.840;2023-12-29T12:47:34;10.50;99.90
7461;DHT22;6757;52.258;12.840;2023-12-29T12:50:05;10.50;99.90
7461;DHT22;6757;52.258;12.840;2023-12-29T12:52:38;10.60;99.90
7461;DHT22;6757;52.258;12.840;2023-12-29T12:55:06;10.60;99.90
7461;DHT22;6757;52.258;12.840;2023-12-29T12:57:35;10.60;99.90
7461;DHT22;6757;52.258;12.840;2023-12-29T13:00:07;10.60;99.90
7461;DHT22;6757;52.258;12.840;2023-12-29T13:02:34;10.60;99.90
7461;DHT22;6757;52.258;12.840;2023-12-29T13:05:05;10.50;99.90
7461;DHT22;6757;52.258;12.840;2023-12-29T13:07:35;10.70;99.90
7461;DHT22;6757;52.258;12.840;2023-12-29T13:10:02;10.70;99.90
7461;DHT22;6757;52.258;12.840;2023-12-29T13:12:30;10.70;99.90
7461;DHT22;6757;52.258;12.840;2023-12-29T13:15:07;10.70;99.90
7461;DHT22;6757;52.258;12.840;2023-12-29T13:17:35;10.70;99.90
7461;DHT22;6757;52.258;12.840;2023-12-29T13:20:02;10.70;99.90
7461;DHT22;6757;52.258;12.840;2023-12-29T13:22:31;10.70;99.90
7461;DHT22;6757;52.258;12.840;2023-12-29T13:24:58;10.70;99.90
7461;DHT22;6757;52.258;12.840;2023-12-29T13:27:26;10.70;99.90
7461;DHT22;6757;52.258;12.840;2023-12-29T13:29:54;10.70;99.90
7461;DHT22;6757;52.258;12.840;2023-12-29T13:32:26;10.70;99.90
7461;DHT22;6757;52.258;12.840;2023-12-29T13:35:02;10.60;99.90
7461;DHT22;6757;52.258;12.840;2023-12-29T13:37:36;10.60;99.90
7461;DHT22;6757;52.258;12.840;2023-12-29T13:40:11;10.60;99.90
7461;DHT22;6757;52.258;12.840;2023-12-29T13:42:45;10.60;99.90
7461;DHT22;6757;52.258;12.840;2023-12-29T13:45:15;10.60;99.90
7461;DHT22;6757;52.258;12.840;2023-12-29T13:47:46;10.60;99.90
7461;DHT22;6757;52.258;12.840;2023-12-29T13:50:13;10.60;99.90
7461;DHT22;6757;52.258;12.840;2023-12-29T13:52:40;10.60;99.90
7461;DHT22;6757;52.258;12.840;2023-12-29T13:55:08;10.60;99.90
7461;DHT22;6757;52.258;12.840;2023-12-29T13:57:35;10.60;99.90
7461;DHT22;6757;52.258;12.840;2023-12-29T14:00:16;10.60;99.90
7461;DHT22;6757;52.258;12.840;2023-12-29T14:02:48;10.60;99.90
7461;DHT22;6757;52.258;12.840;2023-12-29T14:05:31;10.70;99.90
7461;DHT22;6757;52.258;12.840;2023-12-29T14:08:00;10.70;99.90
7461;DHT22;6757;52.258;12.840;2023-12-29T14:10:32;10.70;99.90
7461;DHT22;6757;52.258;12.840;2023-12-29T14:13:06;10.70;99.90
7461;DHT22;6757;52.258;12.840;2023-12-29T14:15:36;10.70;99.90
7461;DHT22;6757;52.258;12.840;2023-12-29T14:18:09;10.70;99.90
7461;DHT22;6757;52.258;12.840;2023-12-29T14:20:47;10.70;99.90
7461;DHT22;6757;52.258;12.840;2023-12-29T14:23:17;10.60;99.90
7461;DHT22;6757;52.258;12.840;2023-12-29T14:25:45;10.70;99.90
7461;DHT22;6757;52.258;12.840;2023-12-29T14:28:15;10.70;99.90
7461;DHT22;6757;52.258;12.840;2023-12-29T14:30:42;10.70;99.90
7461;DHT22;6757;52.258;12.840;2023-12-29T14:33:14;10.70;99.90
7461;DHT22;6757;52.258;12.840;2023-12-29T14:35:41;10.70;99.90
7461;DHT22;6757;52.258;12.840;2023-12-29T14:38:09;10.80;99.90
7461;DHT22;6757;52.258;12.840;2023-12-29T14:40:42;10.70;99.90
7461;DHT22;6757;52.258;12.840;2023-12-29T14:43:11;10.80;99.90
7461;DHT22;6757;52.258;12.840;2023-12-29T14:45:40;10.80;99.90
7461;DHT22;6757;52.258;12.840;2023-12-29T14:48:07;10.80;99.90
7461;DHT22;6757;52.258;12.840;2023-12-29T14:50:36;10.70;99.90
7461;DHT22;6757;52.258;12.840;2023-12-29T14:53:04;10.80;99.90
7461;DHT22;6757;52.258;12.840;2023-12-29T14:55:33;10.80;99.90
7461;DHT22;6757;52.258;12.840;2023-12-29T14:58:01;10.80;99.90
7461;DHT22;6757;52.258;12.840;2023-12-29T15:00:30;10.70;99.90
7461;DHT22;6757;52.258;12.840;2023-12-29T15:02:58;10.70;99.90
7461;DHT22;6757;52.258;12.840;2023-12-29T15:05:24;10.70;99.90
7461;DHT22;6757;52.258;12.840;2023-12-29T15:07:53;10.70;99.90
7461;DHT22;6757;52.258;12.840;2023-12-29T15:10:21;10.70;99.90
7461;DHT22;6757;52.258;12.840;2023-12-29T15:12:49;10.60;99.90
7461;DHT22;6757;52.258;12.840;2023-12-29T15:15:17;10.40;99.90
7461;DHT22;6757;52.258;12.840;2023-12-29T15:17:45;10.60;99.90
7461;DHT22;6757;52.258;12.840;2023-12-29T15:20:13;10.50;99.90
7461;DHT22;6757;52.258;12.840;2023-12-29T15:22:40;10.50;99.90
7461;DHT22;6757;52.258;12.840;2023-12-29T15:25:10;10.50;99.90
7461;DHT22;6757;52.258;12.840;2023-12-29T15:27:38;10.50;99.90
7461;DHT22;6757;52.258;12.840;2023-12-29T15:30:07;10.50;99.90
7461;DHT22;6757;52.258;12.840;2023-12-29T15:32:37;10.40;99.90
7461;DHT22;6757;52.258;12.840;2023-12-29T15:35:04;10.40;99.90
7461;DHT22;6757;52.258;12.840;2023-12-29T15:37:32;10.40;99.90
7461;DHT22;6757;52.258;12.840;2023-12-29T15:39:59;10.40;99.90
7461;DHT22;6757;52.258;12.840;2023-12-29T15:42:27;10.30;99.90
7461;DHT22;6757;52.258;12.840;2023-12-29T15:44:53;10.30;99.90
7461;DHT22;6757;52.258;12.840;2023-12-29T15:47:20;10.30;99.90
7461;DHT22;6757;52.258;12.840;2023-12-29T15:49:47;10.30;99.90
7461;DHT22;6757;52.258;12.840;2023-12-29T15:52:15;10.30;99.90
7461;DHT22;6757;52.258;12.840;2023-12-29T15:54:41;10.20;99.90
7461;DHT22;6757;52.258;12.840;2023-12-29T15:57:08;10.20;99.90
7461;DHT22;6757;52.258;12.840;2023-12-29T15:59:37;10.10;99.90
7461;DHT22;6757;52.258;12.840;2023-12-29T16:02:04;10.20;99.90
7461;DHT22;6757;52.258;12.840;2023-12-29T16:04:32;10.10;99.90